createdAt,value
2019-03-23T00:00:54.222Z,0.00
2019-03-23T00:01:54.234Z,0.00
2019-03-23T00:03:47.140Z,0.00
2019-03-23T00:04:47.145Z,0.00
2019-03-23T00:06:40.047Z,0.00
2019-03-23T00:07:40.056Z,0.00
2019-03-23T00:09:32.967Z,0.00
2019-03-23T00:10:32.973Z,0.00
2019-03-23T00:12:25.890Z,0.00
2019-03-23T00:13:25.883Z,0.00
2019-03-23T00:15:18.788Z,0.00
2019-03-23T00:16:18.805Z,0.00
2019-03-23T00:18:11.705Z,0.00
2019-03-23T00:19:11.712Z,0.00
2019-03-23T00:21:04.611Z,0.00
2019-03-23T00:22:04.624Z,0.00
2019-03-23T00:23:57.534Z,0.00
2019-03-23T00:24:57.537Z,0.00
2019-03-23T00:26:50.437Z,0.00
2019-03-23T00:27:50.491Z,0.00
2019-03-23T00:29:43.365Z,0.00
2019-03-23T00:30:43.363Z,0.00
2019-03-23T00:32:36.812Z,0.00
2019-03-23T00:33:36.277Z,0.00
2019-03-23T00:35:29.179Z,0.00
2019-03-23T00:36:29.193Z,0.00
2019-03-23T00:38:22.099Z,0.00
2019-03-23T00:39:22.109Z,0.00
2019-03-23T00:41:15.008Z,0.00
2019-03-23T00:42:15.026Z,0.00
2019-03-23T00:44:07.925Z,0.00
2019-03-23T00:45:07.934Z,0.00
2019-03-23T00:47:00.824Z,0.00
2019-03-23T00:48:00.844Z,0.00
2019-03-23T00:49:54.246Z,0.00
2019-03-23T00:50:54.250Z,0.00
2019-03-23T00:52:47.155Z,0.00
2019-03-23T00:53:47.162Z,0.00
2019-03-23T00:55:40.064Z,0.00
2019-03-23T00:56:40.073Z,0.00
2019-03-23T00:58:32.981Z,0.00
2019-03-23T00:59:32.984Z,0.00
2019-03-23T01:01:25.884Z,0.00
2019-03-23T01:02:25.897Z,0.00
2019-03-23T01:04:18.800Z,0.00
2019-03-23T01:05:18.810Z,0.00
2019-03-23T01:07:12.201Z,0.00
2019-03-23T01:08:12.213Z,0.00
2019-03-23T01:10:05.119Z,0.00
2019-03-23T01:11:05.127Z,0.00
2019-03-23T01:12:58.036Z,0.00
2019-03-23T01:13:58.039Z,0.00
2019-03-23T01:15:50.940Z,0.00
2019-03-23T01:16:50.951Z,0.00
2019-03-23T01:18:43.859Z,0.00
2019-03-23T01:19:43.864Z,0.00
2019-03-23T01:21:36.763Z,0.00
2019-03-23T01:22:36.773Z,0.00
2019-03-23T01:24:29.680Z,0.00
2019-03-23T01:25:29.687Z,0.00
2019-03-23T01:27:22.592Z,0.00
2019-03-23T01:28:22.603Z,0.00
2019-03-23T01:30:15.510Z,0.00
2019-03-23T01:31:15.513Z,0.00
2019-03-23T01:33:08.420Z,0.00
2019-03-23T01:34:08.426Z,0.00
2019-03-23T01:36:01.324Z,0.00
2019-03-23T01:37:02.950Z,0.00
2019-03-23T01:38:54.240Z,0.00
2019-03-23T01:39:54.247Z,0.00
2019-03-23T01:41:47.151Z,0.00
2019-03-23T01:42:47.164Z,0.00
2019-03-23T01:44:40.094Z,0.00
2019-03-23T01:45:40.072Z,0.00
2019-03-23T01:47:33.467Z,0.00
2019-03-23T01:48:33.484Z,0.00
2019-03-23T01:50:26.385Z,0.00
2019-03-23T01:51:26.393Z,0.00
2019-03-23T01:53:19.296Z,0.00
2019-03-23T01:54:19.300Z,0.00
2019-03-23T01:56:12.203Z,0.00
2019-03-23T01:57:12.211Z,0.00
2019-03-23T01:59:05.119Z,0.00
2019-03-23T02:00:05.126Z,0.00
2019-03-23T02:01:58.023Z,0.00
2019-03-23T02:02:58.037Z,0.00
2019-03-23T02:04:51.084Z,0.00
2019-03-23T02:05:51.088Z,0.00
2019-03-23T02:07:43.991Z,0.00
2019-03-23T02:08:44.001Z,0.00
2019-03-23T02:10:36.909Z,0.00
2019-03-23T02:11:36.915Z,0.00
2019-03-23T02:13:29.825Z,0.00
2019-03-23T02:14:29.828Z,0.00
2019-03-23T02:16:22.727Z,0.00
2019-03-23T02:17:22.738Z,0.00
2019-03-23T02:19:15.645Z,0.00
2019-03-23T02:20:15.651Z,0.00
2019-03-23T02:22:08.548Z,0.00
2019-03-23T02:23:08.557Z,0.00
2019-03-23T02:25:01.470Z,0.00
2019-03-23T02:26:01.473Z,0.00
2019-03-23T02:27:54.376Z,0.00
2019-03-23T02:28:54.385Z,0.00
2019-03-23T02:30:47.289Z,0.00
2019-03-23T02:31:47.299Z,0.00
2019-03-23T02:33:40.215Z,0.00
2019-03-23T02:34:40.206Z,0.00
2019-03-23T02:36:33.104Z,0.00
2019-03-23T02:37:33.114Z,0.00
2019-03-23T02:39:26.022Z,0.00
2019-03-23T02:40:26.026Z,0.00
2019-03-23T02:42:18.923Z,0.00
2019-03-23T02:43:18.937Z,0.00
2019-03-23T02:45:11.841Z,0.00
2019-03-23T02:46:11.846Z,0.00
2019-03-23T02:48:04.744Z,0.00
2019-03-23T02:49:04.833Z,0.00
2019-03-23T02:50:58.156Z,0.00
2019-03-23T02:51:58.159Z,0.00
2019-03-23T02:53:51.065Z,0.00
2019-03-23T02:54:51.067Z,0.00
2019-03-23T02:56:43.967Z,0.00
2019-03-23T02:57:43.981Z,0.00
2019-03-23T02:59:36.883Z,0.00
2019-03-23T03:00:36.890Z,0.00
2019-03-23T03:02:29.786Z,0.00
2019-03-23T03:03:29.804Z,0.00
2019-03-23T03:05:22.702Z,0.00
2019-03-23T03:06:22.707Z,0.00
2019-03-23T03:08:15.606Z,0.00
2019-03-23T03:09:15.615Z,0.00
2019-03-23T03:11:08.517Z,0.00
2019-03-23T03:12:08.519Z,0.00
2019-03-23T03:14:01.427Z,0.00
2019-03-23T03:15:01.451Z,0.00
2019-03-23T03:16:54.332Z,0.00
2019-03-23T03:17:54.341Z,0.00
2019-03-23T03:19:47.243Z,0.00
2019-03-23T03:20:47.258Z,0.00
2019-03-23T03:22:40.641Z,0.00
2019-03-23T03:23:40.660Z,0.00
2019-03-23T03:25:33.554Z,0.00
2019-03-23T03:26:33.559Z,0.00
2019-03-23T03:28:26.455Z,0.00
2019-03-23T03:29:26.473Z,0.00
2019-03-23T03:31:19.370Z,0.00
2019-03-23T03:32:19.377Z,0.00
2019-03-23T03:34:12.299Z,0.00
2019-03-23T03:35:12.287Z,0.00
2019-03-23T03:37:05.184Z,0.00
2019-03-23T03:38:05.192Z,0.00
2019-03-23T03:39:58.100Z,0.00
2019-03-23T03:40:58.101Z,0.00
2019-03-23T03:42:50.998Z,0.00
2019-03-23T03:43:51.005Z,0.00
2019-03-23T03:45:43.917Z,0.00
2019-03-23T03:46:43.919Z,0.00
2019-03-23T03:48:36.815Z,0.00
2019-03-23T03:49:36.826Z,0.00
2019-03-23T03:51:29.746Z,0.00
2019-03-23T03:52:29.736Z,0.00
2019-03-23T03:54:22.640Z,0.00
2019-03-23T03:55:22.648Z,0.00
2019-03-23T03:57:15.548Z,0.00
2019-03-23T03:58:15.553Z,0.00
2019-03-23T04:00:08.458Z,0.00
2019-03-23T04:01:08.461Z,0.00
2019-03-23T04:03:01.372Z,0.00
2019-03-23T04:04:01.369Z,0.00
2019-03-23T04:05:54.278Z,0.00
2019-03-23T04:06:54.283Z,0.00
2019-03-23T04:08:47.179Z,0.00
2019-03-23T04:09:47.191Z,0.00
2019-03-23T04:11:40.093Z,0.00
2019-03-23T04:12:40.096Z,0.00
2019-03-23T04:14:33.002Z,0.00
2019-03-23T04:15:33.006Z,0.00
2019-03-23T04:17:25.907Z,0.00
2019-03-23T04:18:26.510Z,0.00
2019-03-23T04:20:18.823Z,0.00
2019-03-23T04:21:18.824Z,0.00
2019-03-23T04:23:11.729Z,0.00
2019-03-23T04:24:11.735Z,0.00
2019-03-23T04:26:04.637Z,0.00
2019-03-23T04:27:04.641Z,0.00
2019-03-23T04:28:57.536Z,0.00
2019-03-23T04:29:57.547Z,0.00
2019-03-23T04:31:50.454Z,0.00
2019-03-23T04:32:50.457Z,0.00
2019-03-23T04:34:43.373Z,0.00
2019-03-23T04:35:43.366Z,0.00
2019-03-23T04:37:36.266Z,0.00
2019-03-23T04:38:36.277Z,0.00
2019-03-23T04:40:29.179Z,0.00
2019-03-23T04:41:29.184Z,0.00
2019-03-23T04:43:22.079Z,0.00
2019-03-23T04:44:22.089Z,0.00
2019-03-23T04:46:14.995Z,0.00
2019-03-23T04:47:15.000Z,0.00
2019-03-23T04:49:07.897Z,0.00
2019-03-23T04:50:07.909Z,0.00
2019-03-23T04:52:00.811Z,0.00
2019-03-23T04:53:00.815Z,0.00
2019-03-23T04:54:53.716Z,0.00
2019-03-23T04:55:53.727Z,0.00
2019-03-23T04:57:46.633Z,0.00
2019-03-23T04:58:46.634Z,0.00
2019-03-23T05:00:39.541Z,0.00
2019-03-23T05:01:39.542Z,0.00
2019-03-23T05:03:32.440Z,0.00
2019-03-23T05:04:32.451Z,0.00
2019-03-23T05:06:25.352Z,0.00
2019-03-23T05:07:25.359Z,0.00
2019-03-23T05:09:18.254Z,0.00
2019-03-23T05:10:18.267Z,0.00
2019-03-23T05:12:11.168Z,0.00
2019-03-23T05:13:11.177Z,0.00
2019-03-23T05:15:04.077Z,0.00
2019-03-23T05:16:04.085Z,0.00
2019-03-23T05:17:56.993Z,0.00
2019-03-23T05:18:56.999Z,0.00
2019-03-23T05:20:49.905Z,0.00
2019-03-23T05:21:49.904Z,0.00
2019-03-23T05:23:42.802Z,0.00
2019-03-23T05:24:42.812Z,0.00
2019-03-23T05:26:35.721Z,0.00
2019-03-23T05:27:35.723Z,0.00
2019-03-23T05:29:28.624Z,0.00
2019-03-23T05:30:28.633Z,0.00
2019-03-23T05:32:22.033Z,5.63
2019-03-23T05:33:22.045Z,5.63
2019-03-23T05:35:15.076Z,5.63
2019-03-23T05:36:15.423Z,5.63
2019-03-23T05:38:07.998Z,5.63
2019-03-23T05:39:08.001Z,5.63
2019-03-23T05:41:00.908Z,5.63
2019-03-23T05:42:00.909Z,5.63
2019-03-23T05:43:53.811Z,11.25
2019-03-23T05:44:53.818Z,11.25
2019-03-23T05:46:47.219Z,11.25
2019-03-23T05:47:47.224Z,11.25
2019-03-23T05:49:40.124Z,11.25
2019-03-23T05:50:40.138Z,11.25
2019-03-23T05:52:33.041Z,11.25
2019-03-23T05:53:33.045Z,11.25
2019-03-23T05:55:25.946Z,11.25
2019-03-23T05:56:25.954Z,16.88
2019-03-23T05:58:18.859Z,16.88
2019-03-23T05:59:18.866Z,16.88
2019-03-23T06:01:11.769Z,16.88
2019-03-23T06:02:11.777Z,16.88
2019-03-23T06:04:04.672Z,16.88
2019-03-23T06:05:04.680Z,16.88
2019-03-23T06:06:58.080Z,16.88
2019-03-23T06:07:58.084Z,16.88
2019-03-23T06:09:50.980Z,16.88
2019-03-23T06:10:50.991Z,16.88
2019-03-23T06:12:43.892Z,16.88
2019-03-23T06:13:43.898Z,22.50
2019-03-23T06:15:36.794Z,22.50
2019-03-23T06:16:36.808Z,22.50
2019-03-23T06:18:29.714Z,22.50
2019-03-23T06:19:29.714Z,16.88
2019-03-23T06:21:22.620Z,22.50
2019-03-23T06:22:22.626Z,22.50
2019-03-23T06:24:15.523Z,28.13
2019-03-23T06:25:15.558Z,28.13
2019-03-23T06:27:08.437Z,28.13
2019-03-23T06:28:08.441Z,28.13
2019-03-23T06:30:01.345Z,28.13
2019-03-23T06:31:01.350Z,28.13
2019-03-23T06:32:54.259Z,28.13
2019-03-23T06:33:54.310Z,28.13
2019-03-23T06:35:48.158Z,28.13
2019-03-23T06:36:48.175Z,28.13
2019-03-23T06:38:41.074Z,28.13
2019-03-23T06:39:41.076Z,28.13
2019-03-23T06:41:33.982Z,28.13
2019-03-23T06:42:33.984Z,33.75
2019-03-23T06:44:26.887Z,33.75
2019-03-23T06:45:26.893Z,33.75
2019-03-23T06:47:19.802Z,39.38
2019-03-23T06:48:19.808Z,39.38
2019-03-23T06:50:12.704Z,33.75
2019-03-23T06:51:12.710Z,33.75
2019-03-23T06:53:05.623Z,39.38
2019-03-23T06:54:05.626Z,39.38
2019-03-23T06:55:58.519Z,50.63
2019-03-23T06:56:58.528Z,50.63
2019-03-23T06:58:51.432Z,56.25
2019-03-23T06:59:51.436Z,56.25
2019-03-23T07:01:44.836Z,56.25
2019-03-23T07:02:44.841Z,61.88
2019-03-23T07:04:37.738Z,56.25
2019-03-23T07:05:37.766Z,61.88
2019-03-23T07:07:30.654Z,61.88
2019-03-23T07:08:32.211Z,56.25
2019-03-23T07:10:23.554Z,67.50
2019-03-23T07:11:23.567Z,73.13
2019-03-23T07:13:16.474Z,61.88
2019-03-23T07:14:16.476Z,61.88
2019-03-23T07:16:09.377Z,67.50
2019-03-23T07:17:09.384Z,61.88
2019-03-23T07:19:02.290Z,73.13
2019-03-23T07:20:02.295Z,73.13
2019-03-23T07:21:55.204Z,84.38
2019-03-23T07:22:55.205Z,95.63
2019-03-23T07:24:48.101Z,84.38
2019-03-23T07:25:48.113Z,95.63
2019-03-23T07:27:41.017Z,95.63
2019-03-23T07:28:41.027Z,95.63
2019-03-23T07:30:33.920Z,95.63
2019-03-23T07:31:33.931Z,95.63
2019-03-23T07:33:26.837Z,101.25
2019-03-23T07:34:26.840Z,106.88
2019-03-23T07:36:19.736Z,101.25
2019-03-23T07:37:19.747Z,106.88
2019-03-23T07:39:12.653Z,118.13
2019-03-23T07:40:12.658Z,112.50
2019-03-23T07:42:05.568Z,112.50
2019-03-23T07:43:05.567Z,123.75
2019-03-23T07:44:58.467Z,135.00
2019-03-23T07:45:58.479Z,140.63
2019-03-23T07:47:51.384Z,146.25
2019-03-23T07:48:51.389Z,129.38
2019-03-23T07:50:44.285Z,123.75
2019-03-23T07:51:44.296Z,129.38
2019-03-23T07:53:37.199Z,129.38
2019-03-23T07:54:37.216Z,140.63
2019-03-23T07:56:30.130Z,140.63
2019-03-23T07:57:30.116Z,129.38
2019-03-23T07:59:23.020Z,123.75
2019-03-23T08:00:23.028Z,123.75
2019-03-23T08:02:15.933Z,129.38
2019-03-23T08:03:15.939Z,135.00
2019-03-23T08:05:08.844Z,118.13
2019-03-23T08:06:08.854Z,123.75
2019-03-23T08:08:01.760Z,135.00
2019-03-23T08:09:01.765Z,123.75
2019-03-23T08:10:54.669Z,106.88
2019-03-23T08:11:54.683Z,106.88
2019-03-23T08:13:48.079Z,129.38
2019-03-23T08:14:48.085Z,140.63
2019-03-23T08:16:40.991Z,129.38
2019-03-23T08:17:41.001Z,129.38
2019-03-23T08:19:33.909Z,157.50
2019-03-23T08:20:33.912Z,168.75
2019-03-23T08:22:26.822Z,135.00
2019-03-23T08:23:26.825Z,140.63
2019-03-23T08:25:20.224Z,140.63
2019-03-23T08:26:20.232Z,140.63
2019-03-23T08:28:13.137Z,168.75
2019-03-23T08:29:13.142Z,168.75
2019-03-23T08:31:06.046Z,219.38
2019-03-23T08:32:06.056Z,236.25
2019-03-23T08:33:58.960Z,236.25
2019-03-23T08:34:58.968Z,236.25
2019-03-23T08:36:51.869Z,253.13
2019-03-23T08:37:51.880Z,258.75
2019-03-23T08:39:48.634Z,219.38
2019-03-23T08:40:45.290Z,219.38
2019-03-23T08:42:38.199Z,241.88
2019-03-23T08:43:38.202Z,247.50
2019-03-23T08:45:31.108Z,270.00
2019-03-23T08:46:31.117Z,258.75
2019-03-23T08:48:24.027Z,247.50
2019-03-23T08:49:24.033Z,241.88
2019-03-23T08:51:17.077Z,241.88
2019-03-23T08:52:17.097Z,241.88
2019-03-23T08:54:10.015Z,264.38
2019-03-23T08:55:10.090Z,270.00
2019-03-23T08:57:02.988Z,253.13
2019-03-23T08:58:02.955Z,253.13
2019-03-23T08:59:55.862Z,270.00
2019-03-23T09:00:55.869Z,270.00
2019-03-23T09:02:48.775Z,247.50
2019-03-23T09:03:52.604Z,253.13
2019-03-23T09:05:41.685Z,247.50
2019-03-23T09:06:41.697Z,253.13
2019-03-23T09:08:34.607Z,258.75
2019-03-23T09:09:34.612Z,253.13
2019-03-23T09:11:27.522Z,241.88
2019-03-23T09:12:27.530Z,253.13
2019-03-23T09:14:20.440Z,236.25
2019-03-23T09:15:20.448Z,230.63
2019-03-23T09:17:13.350Z,241.88
2019-03-23T09:18:13.368Z,236.25
2019-03-23T09:20:06.279Z,236.25
2019-03-23T09:21:06.279Z,253.13
2019-03-23T09:22:59.192Z,236.25
2019-03-23T09:23:59.198Z,225.00
2019-03-23T09:25:52.105Z,213.75
2019-03-23T09:26:52.119Z,241.88
2019-03-23T09:28:45.035Z,247.50
2019-03-23T09:29:45.037Z,241.88
2019-03-23T09:31:38.438Z,281.25
2019-03-23T09:32:38.450Z,281.25
2019-03-23T09:34:31.430Z,303.75
2019-03-23T09:35:31.367Z,298.13
2019-03-23T09:37:25.865Z,354.38
2019-03-23T09:38:25.800Z,393.75
2019-03-23T09:40:19.215Z,433.13
2019-03-23T09:41:19.303Z,410.63
2019-03-23T09:43:12.622Z,360.00
2019-03-23T09:44:12.634Z,399.38
2019-03-23T09:46:05.577Z,444.38
2019-03-23T09:47:05.550Z,461.25
2019-03-23T09:48:58.514Z,483.75
2019-03-23T09:49:58.467Z,478.13
2019-03-23T09:51:51.895Z,450.00
2019-03-23T09:52:51.907Z,444.38
2019-03-23T09:54:44.850Z,416.25
2019-03-23T09:55:44.860Z,388.13
2019-03-23T09:57:37.779Z,376.88
2019-03-23T09:58:37.790Z,365.63
2019-03-23T10:00:30.703Z,348.75
2019-03-23T10:01:30.711Z,331.88
2019-03-23T10:03:23.640Z,326.25
2019-03-23T10:04:23.686Z,343.13
2019-03-23T10:06:16.560Z,393.75
2019-03-23T10:07:16.573Z,410.63
2019-03-23T10:09:09.514Z,410.63
2019-03-23T10:10:09.523Z,416.25
2019-03-23T10:12:02.430Z,438.75
2019-03-23T10:13:02.443Z,427.50
2019-03-23T10:14:55.363Z,399.38
2019-03-23T10:15:55.367Z,416.25
2019-03-23T10:17:48.291Z,444.38
2019-03-23T10:18:48.291Z,444.38
2019-03-23T10:20:41.202Z,399.38
2019-03-23T10:21:41.224Z,382.50
2019-03-23T10:23:34.126Z,393.75
2019-03-23T10:24:34.171Z,382.50
2019-03-23T10:26:27.046Z,348.75
2019-03-23T10:27:27.060Z,360.00
2019-03-23T10:29:19.980Z,371.25
2019-03-23T10:30:19.991Z,371.25
2019-03-23T10:32:12.913Z,382.50
2019-03-23T10:33:12.907Z,343.13
2019-03-23T10:35:05.833Z,489.38
2019-03-23T10:36:05.939Z,472.50
2019-03-23T10:37:59.227Z,410.63
2019-03-23T10:38:59.242Z,427.50
2019-03-23T10:40:52.161Z,410.63
2019-03-23T10:41:52.173Z,388.13
2019-03-23T10:43:45.079Z,416.25
2019-03-23T10:44:45.091Z,393.75
2019-03-23T10:46:38.011Z,382.50
2019-03-23T10:47:38.129Z,393.75
2019-03-23T10:49:30.944Z,410.63
2019-03-23T10:50:30.958Z,399.38
2019-03-23T10:52:23.857Z,354.38
2019-03-23T10:53:23.977Z,360.00
2019-03-23T10:55:17.283Z,455.63
2019-03-23T10:56:17.292Z,461.25
2019-03-23T10:58:10.201Z,421.88
2019-03-23T10:59:10.233Z,416.25
2019-03-23T11:01:03.128Z,450.00
2019-03-23T11:02:03.135Z,421.88
2019-03-23T11:03:56.050Z,478.13
2019-03-23T11:04:56.060Z,483.75
2019-03-23T11:06:48.981Z,450.00
2019-03-23T11:07:48.984Z,495.00
2019-03-23T11:09:41.900Z,495.00
2019-03-23T11:10:42.193Z,466.88
2019-03-23T11:12:34.819Z,461.25
2019-03-23T11:13:34.835Z,528.75
2019-03-23T11:15:27.752Z,517.50
2019-03-23T11:16:27.761Z,528.75
2019-03-23T11:18:20.663Z,556.88
2019-03-23T11:19:20.681Z,523.13
2019-03-23T11:21:13.597Z,528.75
2019-03-23T11:22:13.607Z,495.00
2019-03-23T11:24:06.524Z,489.38
2019-03-23T11:25:06.533Z,506.25
2019-03-23T11:26:59.442Z,495.00
2019-03-23T11:27:59.458Z,433.13
2019-03-23T11:29:52.383Z,438.75
2019-03-23T11:30:52.483Z,450.00
2019-03-23T11:32:45.299Z,489.38
2019-03-23T11:33:45.312Z,517.50
2019-03-23T11:35:38.226Z,573.75
2019-03-23T11:36:38.240Z,562.50
2019-03-23T11:38:31.145Z,590.63
2019-03-23T11:39:31.159Z,556.88
2019-03-23T11:41:24.078Z,551.25
2019-03-23T11:42:24.087Z,568.13
2019-03-23T11:44:17.003Z,551.25
2019-03-23T11:45:17.017Z,562.50
2019-03-23T11:47:09.924Z,545.63
2019-03-23T11:48:09.941Z,534.38
2019-03-23T11:50:02.876Z,540.00
2019-03-23T11:51:02.867Z,534.38
2019-03-23T11:52:56.268Z,472.50
2019-03-23T11:53:56.287Z,410.63
2019-03-23T11:55:49.209Z,388.13
2019-03-23T11:56:49.213Z,365.63
2019-03-23T11:58:42.126Z,337.50
2019-03-23T11:59:42.138Z,337.50
2019-03-23T12:01:35.055Z,343.13
2019-03-23T12:02:35.069Z,343.13
2019-03-23T12:04:27.984Z,376.88
2019-03-23T12:05:27.992Z,399.38
2019-03-23T12:07:20.927Z,461.25
2019-03-23T12:08:20.914Z,483.75
2019-03-23T12:10:14.332Z,500.63
2019-03-23T12:11:14.336Z,517.50
2019-03-23T12:13:07.256Z,500.63
2019-03-23T12:14:07.266Z,506.25
2019-03-23T12:16:00.300Z,517.50
2019-03-23T12:17:00.249Z,495.00
2019-03-23T12:18:53.155Z,506.25
2019-03-23T12:19:53.173Z,534.38
2019-03-23T12:21:46.090Z,551.25
2019-03-23T12:22:46.102Z,551.25
2019-03-23T12:24:39.521Z,556.88
2019-03-23T12:25:39.521Z,551.25
2019-03-23T12:27:32.927Z,562.50
2019-03-23T12:28:32.946Z,562.50
2019-03-23T12:30:25.879Z,573.75
2019-03-23T12:31:25.889Z,568.13
2019-03-23T12:33:18.804Z,573.75
2019-03-23T12:34:18.818Z,573.75
2019-03-23T12:36:12.256Z,562.50
2019-03-23T12:37:12.265Z,551.25
2019-03-23T12:39:05.180Z,551.25
2019-03-23T12:40:05.197Z,528.75
2019-03-23T12:41:58.128Z,540.00
2019-03-23T12:42:58.127Z,545.63
2019-03-23T12:44:51.044Z,540.00
2019-03-23T12:45:51.054Z,534.38
2019-03-23T12:47:44.463Z,528.75
2019-03-23T12:48:44.479Z,511.88
2019-03-23T12:50:37.395Z,506.25
2019-03-23T12:51:37.410Z,523.13
2019-03-23T12:53:30.320Z,523.13
2019-03-23T12:54:30.338Z,523.13
2019-03-23T12:56:23.257Z,489.38
2019-03-23T12:57:23.267Z,489.38
2019-03-23T12:59:16.674Z,489.38
2019-03-23T13:00:16.694Z,483.75
2019-03-23T13:02:10.104Z,461.25
2019-03-23T13:03:10.116Z,466.88
2019-03-23T13:05:04.163Z,489.38
2019-03-23T13:06:03.543Z,478.13
2019-03-23T13:07:56.954Z,466.88
2019-03-23T13:08:56.973Z,461.25
2019-03-23T13:10:50.375Z,450.00
2019-03-23T13:11:50.389Z,455.63
2019-03-23T13:13:43.800Z,466.88
2019-03-23T13:14:43.809Z,478.13
2019-03-23T13:16:36.732Z,472.50
2019-03-23T13:17:36.744Z,472.50
2019-03-23T13:19:29.662Z,450.00
2019-03-23T13:20:29.785Z,433.13
2019-03-23T13:22:23.154Z,433.13
2019-03-23T13:23:23.158Z,450.00
2019-03-23T13:25:16.076Z,455.63
2019-03-23T13:26:16.086Z,450.00
2019-03-23T13:28:08.999Z,438.75
2019-03-23T13:29:09.017Z,444.38
2019-03-23T13:31:01.935Z,444.38
2019-03-23T13:32:01.943Z,450.00
2019-03-23T13:33:54.856Z,461.25
2019-03-23T13:34:54.876Z,455.63
2019-03-23T13:36:47.801Z,450.00
2019-03-23T13:37:47.810Z,427.50
2019-03-23T13:39:40.722Z,410.63
2019-03-23T13:40:40.739Z,427.50
2019-03-23T13:42:34.241Z,410.63
2019-03-23T13:43:33.666Z,393.75
2019-03-23T13:45:26.587Z,376.88
2019-03-23T13:46:26.604Z,382.50
2019-03-23T13:48:19.511Z,388.13
2019-03-23T13:49:19.529Z,382.50
2019-03-23T13:51:12.445Z,388.13
2019-03-23T13:52:12.455Z,376.88
2019-03-23T13:54:05.369Z,382.50
2019-03-23T13:55:05.385Z,376.88
2019-03-23T13:56:58.304Z,399.38
2019-03-23T13:57:58.313Z,405.00
2019-03-23T13:59:51.730Z,399.38
2019-03-23T14:00:51.737Z,393.75
2019-03-23T14:02:45.151Z,360.00
2019-03-23T14:03:45.160Z,326.25
2019-03-23T14:05:38.575Z,343.13
2019-03-23T14:06:38.585Z,348.75
2019-03-23T14:08:31.495Z,360.00
2019-03-23T14:09:31.511Z,354.38
2019-03-23T14:11:24.433Z,365.63
2019-03-23T14:12:24.442Z,365.63
2019-03-23T14:14:17.353Z,343.13
2019-03-23T14:15:17.368Z,343.13
2019-03-23T14:17:10.289Z,320.63
2019-03-23T14:18:10.297Z,298.13
2019-03-23T14:20:03.213Z,264.38
2019-03-23T14:21:03.230Z,258.75
2019-03-23T14:23:02.544Z,253.13
2019-03-23T14:23:56.653Z,253.13
2019-03-23T14:25:49.571Z,258.75
2019-03-23T14:26:49.784Z,264.38
2019-03-23T14:28:42.489Z,270.00
2019-03-23T14:29:42.504Z,264.38
2019-03-23T14:31:35.492Z,241.88
2019-03-23T14:32:35.428Z,230.63
2019-03-23T14:34:28.343Z,213.75
2019-03-23T14:35:28.361Z,213.75
2019-03-23T14:37:21.304Z,213.75
2019-03-23T14:38:21.296Z,219.38
2019-03-23T14:40:14.193Z,213.75
2019-03-23T14:41:14.214Z,202.50
2019-03-23T14:43:07.633Z,185.63
2019-03-23T14:44:07.632Z,185.63
2019-03-23T14:46:01.083Z,196.88
2019-03-23T14:47:01.052Z,191.25
2019-03-23T14:48:53.959Z,185.63
2019-03-23T14:49:53.972Z,196.88
2019-03-23T14:51:46.954Z,196.88
2019-03-23T14:52:46.940Z,202.50
2019-03-23T14:54:39.808Z,213.75
2019-03-23T14:55:39.824Z,219.38
2019-03-23T14:57:32.743Z,230.63
2019-03-23T14:58:32.749Z,225.00
2019-03-23T15:00:25.657Z,213.75
2019-03-23T15:01:25.673Z,208.13
2019-03-23T15:03:18.594Z,196.88
2019-03-23T15:04:18.602Z,180.00
2019-03-23T15:06:11.517Z,163.13
2019-03-23T15:07:11.524Z,163.13
2019-03-23T15:09:04.435Z,146.25
2019-03-23T15:10:04.451Z,140.63
2019-03-23T15:11:57.861Z,140.63
2019-03-23T15:12:57.870Z,140.63
2019-03-23T15:14:50.779Z,146.25
2019-03-23T15:15:50.793Z,140.63
2019-03-23T15:17:48.668Z,146.25
2019-03-23T15:18:44.225Z,157.50
2019-03-23T15:20:37.139Z,168.75
2019-03-23T15:21:37.147Z,168.75
2019-03-23T15:23:30.058Z,191.25
2019-03-23T15:24:30.076Z,196.88
2019-03-23T15:26:23.478Z,196.88
2019-03-23T15:27:23.490Z,196.88
2019-03-23T15:29:16.397Z,196.88
2019-03-23T15:30:16.414Z,196.88
2019-03-23T15:32:09.331Z,185.63
2019-03-23T15:33:09.442Z,168.75
2019-03-23T15:35:02.744Z,140.63
2019-03-23T15:36:03.651Z,129.38
2019-03-23T15:37:55.687Z,106.88
2019-03-23T15:38:55.684Z,101.25
2019-03-23T15:40:48.600Z,101.25
2019-03-23T15:41:48.605Z,101.25
2019-03-23T15:43:41.512Z,101.25
2019-03-23T15:44:41.524Z,101.25
2019-03-23T15:46:34.438Z,101.25
2019-03-23T15:47:34.446Z,101.25
2019-03-23T15:49:27.353Z,90.00
2019-03-23T15:50:27.425Z,101.25
2019-03-23T15:52:20.318Z,106.88
2019-03-23T15:53:20.334Z,101.25
2019-03-23T15:55:13.238Z,95.63
2019-03-23T15:56:13.257Z,90.00
2019-03-23T15:58:06.165Z,78.75
2019-03-23T15:59:06.174Z,73.13
2019-03-23T16:00:59.087Z,67.50
2019-03-23T16:01:59.100Z,61.88
2019-03-23T16:03:52.008Z,56.25
2019-03-23T16:04:52.018Z,61.88
2019-03-23T16:06:44.934Z,84.38
2019-03-23T16:07:44.943Z,101.25
2019-03-23T16:09:38.010Z,106.88
2019-03-23T16:10:37.864Z,106.88
2019-03-23T16:12:34.741Z,101.25
2019-03-23T16:13:30.784Z,101.25
2019-03-23T16:15:23.691Z,101.25
2019-03-23T16:16:23.703Z,95.63
2019-03-23T16:18:16.622Z,95.63
2019-03-23T16:19:16.631Z,90.00
2019-03-23T16:21:10.046Z,84.38
2019-03-23T16:22:10.050Z,78.75
2019-03-23T16:24:02.957Z,61.88
2019-03-23T16:25:02.972Z,56.25
2019-03-23T16:26:55.891Z,50.63
2019-03-23T16:27:55.895Z,50.63
2019-03-23T16:29:49.299Z,45.00
2019-03-23T16:30:49.315Z,39.38
2019-03-23T16:32:42.236Z,33.75
2019-03-23T16:33:42.247Z,33.75
2019-03-23T16:35:35.152Z,28.13
2019-03-23T16:36:35.164Z,28.13
2019-03-23T16:38:28.076Z,22.50
2019-03-23T16:39:28.105Z,16.88
2019-03-23T16:41:21.002Z,11.25
2019-03-23T16:42:21.006Z,11.25
2019-03-23T16:44:13.913Z,11.25
2019-03-23T16:45:13.931Z,11.25
2019-03-23T16:47:06.841Z,11.25
2019-03-23T16:48:06.850Z,16.88
2019-03-23T16:49:59.757Z,16.88
2019-03-23T16:50:59.770Z,22.50
2019-03-23T16:52:53.181Z,22.50
2019-03-23T16:53:53.189Z,22.50
2019-03-23T16:55:46.100Z,28.13
2019-03-23T16:56:46.106Z,28.13
2019-03-23T16:58:39.044Z,33.75
2019-03-23T16:59:39.022Z,33.75
2019-03-23T17:01:31.934Z,33.75
2019-03-23T17:02:31.943Z,33.75
2019-03-23T17:04:26.344Z,28.13
2019-03-23T17:05:26.359Z,28.13
2019-03-23T17:07:19.266Z,28.13
2019-03-23T17:08:19.273Z,22.50
2019-03-23T17:10:12.179Z,22.50
2019-03-23T17:11:12.205Z,22.50
2019-03-23T17:13:05.105Z,16.88
2019-03-23T17:14:05.194Z,22.50
2019-03-23T17:15:58.023Z,22.50
2019-03-23T17:17:00.205Z,22.50
2019-03-23T17:18:51.081Z,28.13
2019-03-23T17:19:51.096Z,28.13
2019-03-23T17:21:44.008Z,22.50
2019-03-23T17:22:44.015Z,22.50
2019-03-23T17:24:36.924Z,22.50
2019-03-23T17:25:37.831Z,16.88
2019-03-23T17:27:29.850Z,11.25
2019-03-23T17:28:29.855Z,11.25
2019-03-23T17:30:22.760Z,5.63
2019-03-23T17:31:22.778Z,5.63
2019-03-23T17:33:15.696Z,5.63
2019-03-23T17:34:15.700Z,5.63
2019-03-23T17:36:08.610Z,0.00
2019-03-23T17:37:08.615Z,0.00
2019-03-23T17:39:01.538Z,0.00
2019-03-23T17:40:01.538Z,0.00
2019-03-23T17:41:54.444Z,0.00
2019-03-23T17:42:54.451Z,0.00
2019-03-23T17:44:47.351Z,0.00
2019-03-23T17:45:47.365Z,0.00
2019-03-23T17:47:40.278Z,0.00
2019-03-23T17:48:40.285Z,0.00
2019-03-23T17:50:33.188Z,0.00
2019-03-23T17:51:33.201Z,0.00
2019-03-23T17:53:26.110Z,0.00
2019-03-23T17:54:26.117Z,0.00
2019-03-23T17:56:19.042Z,0.00
2019-03-23T17:57:19.036Z,0.00
2019-03-23T17:59:11.971Z,0.00
2019-03-23T18:00:11.979Z,0.00
2019-03-23T18:02:04.938Z,0.00
2019-03-23T18:03:04.888Z,0.00
2019-03-23T18:04:57.785Z,0.00
2019-03-23T18:05:57.834Z,0.00
2019-03-23T18:07:50.718Z,0.00
2019-03-23T18:08:50.706Z,0.00
2019-03-23T18:10:43.637Z,0.00
2019-03-23T18:11:43.649Z,0.00
2019-03-23T18:13:36.595Z,0.00
2019-03-23T18:14:36.565Z,0.00
2019-03-23T18:16:29.496Z,0.00
2019-03-23T18:17:29.477Z,0.00
2019-03-23T18:19:22.375Z,0.00
2019-03-23T18:20:22.379Z,0.00
2019-03-23T18:22:15.283Z,0.00
2019-03-23T18:23:15.917Z,0.00
2019-03-23T18:25:08.192Z,0.00
2019-03-23T18:26:08.205Z,0.00
2019-03-23T18:28:01.114Z,0.00
2019-03-23T18:29:01.121Z,0.00
2019-03-23T18:30:54.054Z,0.00